Houston, Texas
Traffic Map
Current Weather Conditions
Houston, Texas
Broken Clouds
Broken Clouds
80°
Feels Like: 86°
Wind Chill: 80° Ceiling: 25000
Heat Index: 86° Visibility: 10mi
Dew Point: 77° Wind: 6mph
Humidity: 90% Direction: 200° (SSW)
Pressure: 29.99in Gusts: 0mph
Raw Report DataKIAH 252153Z 20005KT 10SM FEW035 FEW120 SCT190 BKN250 27/25 A2999 RMK AO2 SLP156 T02670250
Traffic Incident Summary
Active as of:
Severity:
Category:
InformationThere was an issue retrieving the traffic information for this location. Please try a different location or try again shortly.
Advertisements
Track Severe Weather on mobile